createdAt,value
2023-05-15T00:01:24.554Z,7.32
2023-05-15T00:03:52.804Z,7.13
2023-05-15T00:06:24.660Z,8.05
2023-05-15T00:08:52.393Z,7.65
2023-05-15T00:11:20.203Z,8.25
2023-05-15T00:13:47.955Z,7.43
2023-05-15T00:16:15.782Z,8.50
2023-05-15T00:18:43.526Z,8.38
2023-05-15T00:21:11.266Z,7.65
2023-05-15T00:23:40.250Z,8.85
2023-05-15T00:26:07.862Z,7.80
2023-05-15T00:28:35.436Z,8.35
2023-05-15T00:31:03.094Z,8.35
2023-05-15T00:33:31.094Z,9.45
2023-05-15T00:35:58.860Z,9.23
2023-05-15T00:38:26.539Z,9.00
2023-05-15T00:40:56.796Z,8.98
2023-05-15T00:43:27.260Z,8.38
2023-05-15T00:45:55.357Z,9.07
2023-05-15T00:48:25.368Z,9.43
2023-05-15T00:50:53.101Z,8.55
2023-05-15T00:53:20.839Z,9.77
2023-05-15T00:55:48.544Z,9.77
2023-05-15T00:58:18.166Z,8.98
2023-05-15T01:00:47.426Z,8.35
2023-05-15T01:03:15.333Z,9.27
2023-05-15T01:05:43.245Z,8.82
2023-05-15T01:08:21.614Z,8.90
2023-05-15T01:10:50.199Z,8.48
2023-05-15T01:13:21.192Z,9.18
2023-05-15T01:15:49.893Z,9.77
2023-05-15T01:18:17.788Z,9.93
2023-05-15T01:21:07.379Z,8.35
2023-05-15T01:23:46.829Z,9.68
2023-05-15T01:26:35.796Z,8.57
2023-05-15T01:29:13.372Z,9.30
2023-05-15T01:31:44.273Z,8.75
2023-05-15T01:34:12.770Z,9.55
2023-05-15T01:36:47.197Z,9.45
2023-05-15T01:39:17.873Z,9.13
2023-05-15T01:41:52.118Z,8.73
2023-05-15T01:44:27.153Z,9.50
2023-05-15T01:46:58.667Z,9.43
2023-05-15T01:49:29.021Z,10.23
2023-05-15T01:52:00.673Z,9.23
2023-05-15T01:54:30.773Z,8.13
2023-05-15T01:57:00.032Z,8.35
2023-05-15T01:59:30.552Z,8.93
2023-05-15T02:01:59.330Z,9.05
2023-05-15T02:04:27.578Z,9.63
2023-05-15T02:06:56.781Z,8.75
2023-05-15T02:09:24.955Z,10.20
2023-05-15T02:11:52.866Z,8.85
2023-05-15T02:14:21.530Z,8.98
2023-05-15T02:16:51.240Z,9.95
2023-05-15T02:19:19.085Z,8.23
2023-05-15T02:21:46.851Z,9.90
2023-05-15T02:24:14.546Z,8.80
2023-05-15T02:26:50.947Z,9.13
2023-05-15T02:29:21.651Z,8.80
2023-05-15T02:32:00.523Z,9.55
2023-05-15T02:34:35.672Z,8.40
2023-05-15T02:37:05.646Z,8.45
2023-05-15T02:39:35.367Z,9.85
2023-05-15T02:42:03.706Z,8.35
2023-05-15T02:44:32.724Z,7.45
2023-05-15T02:47:02.820Z,7.72
2023-05-15T02:49:30.726Z,8.48
2023-05-15T02:51:58.618Z,8.02
2023-05-15T02:54:26.680Z,7.93
2023-05-15T02:56:54.728Z,7.22
2023-05-15T02:59:23.007Z,7.70
2023-05-15T03:01:50.828Z,7.63
2023-05-15T03:04:19.826Z,8.80
2023-05-15T03:06:47.503Z,7.55
2023-05-15T03:09:15.204Z,8.38
2023-05-15T03:11:43.013Z,9.07
2023-05-15T03:14:10.803Z,8.25
2023-05-15T03:16:38.922Z,8.88
2023-05-15T03:19:06.884Z,9.77
2023-05-15T03:21:35.877Z,9.05
2023-05-15T03:24:03.774Z,9.35
2023-05-15T03:26:31.363Z,8.75
2023-05-15T03:28:59.151Z,9.38
2023-05-15T03:31:26.807Z,8.82
2023-05-15T03:33:54.771Z,9.50
2023-05-15T03:36:25.244Z,10.98
2023-05-15T03:38:54.206Z,9.60
2023-05-15T03:41:22.338Z,9.32
2023-05-15T03:43:50.188Z,9.07
2023-05-15T03:46:18.166Z,9.50
2023-05-15T03:48:45.983Z,9.38
2023-05-15T03:51:14.061Z,9.60
2023-05-15T03:53:42.019Z,9.00
2023-05-15T03:56:11.569Z,10.00
2023-05-15T03:58:41.665Z,9.57
2023-05-15T04:01:09.660Z,9.02
2023-05-15T04:03:37.424Z,8.95
2023-05-15T04:06:05.776Z,9.38
2023-05-15T04:08:33.632Z,8.82
2023-05-15T04:11:01.661Z,9.43
2023-05-15T04:13:30.643Z,8.50
2023-05-15T04:15:59.806Z,8.32
2023-05-15T04:18:27.506Z,8.85
2023-05-15T04:20:55.137Z,8.20
2023-05-15T04:23:22.767Z,8.18
2023-05-15T04:25:53.664Z,8.85
2023-05-15T04:28:21.773Z,9.15
2023-05-15T04:30:50.876Z,9.40
2023-05-15T04:33:18.541Z,9.68
2023-05-15T04:35:46.356Z,9.02
2023-05-15T04:38:13.982Z,10.38
2023-05-15T04:40:41.671Z,9.63
2023-05-15T04:43:09.361Z,9.77
2023-05-15T04:45:37.309Z,10.05
2023-05-15T04:48:07.059Z,9.82
2023-05-15T04:50:34.752Z,9.00
2023-05-15T04:53:02.412Z,8.93
2023-05-15T04:55:31.655Z,9.10
2023-05-15T04:57:59.429Z,10.35
2023-05-15T05:00:27.315Z,10.18
2023-05-15T05:02:54.968Z,9.38
2023-05-15T05:05:24.222Z,9.48
2023-05-15T05:07:52.182Z,9.23
2023-05-15T05:10:19.998Z,9.93
2023-05-15T05:12:47.597Z,10.20
2023-05-15T05:15:15.385Z,8.80
2023-05-15T05:17:43.111Z,9.93
2023-05-15T05:20:13.270Z,9.90
2023-05-15T05:22:42.760Z,12.32
2023-05-15T05:25:11.054Z,10.82
2023-05-15T05:27:38.772Z,10.50
2023-05-15T05:30:08.683Z,10.00
2023-05-15T05:32:36.520Z,10.73
2023-05-15T05:35:04.876Z,10.90
2023-05-15T05:37:32.518Z,12.32
2023-05-15T05:40:01.517Z,11.05
2023-05-15T05:42:30.099Z,10.15
2023-05-15T05:44:57.818Z,10.05
2023-05-15T05:47:25.432Z,11.95
2023-05-15T05:49:55.051Z,10.40
2023-05-15T05:52:22.770Z,10.18
2023-05-15T05:54:50.631Z,10.18
2023-05-15T05:57:19.674Z,11.77
2023-05-15T05:59:47.375Z,9.43
2023-05-15T06:02:15.058Z,10.55
2023-05-15T06:04:42.881Z,11.23
2023-05-15T06:07:10.808Z,10.57
2023-05-15T06:09:38.399Z,10.90
2023-05-15T06:12:08.393Z,10.27
2023-05-15T06:14:37.536Z,12.18
2023-05-15T06:17:06.344Z,10.55
2023-05-15T06:19:34.094Z,11.02
2023-05-15T06:22:01.935Z,11.00
2023-05-15T06:24:29.665Z,10.80
2023-05-15T06:26:57.505Z,10.35
2023-05-15T06:29:25.627Z,9.95
2023-05-15T06:31:54.786Z,11.45
2023-05-15T06:34:22.390Z,10.27
2023-05-15T06:36:51.854Z,9.88
2023-05-15T06:39:20.098Z,9.85
2023-05-15T06:41:47.728Z,10.35
2023-05-15T06:44:15.740Z,9.40
2023-05-15T06:46:43.487Z,9.75
2023-05-15T06:49:12.564Z,10.35
2023-05-15T06:51:40.230Z,11.40
2023-05-15T06:54:08.192Z,9.82
2023-05-15T06:56:35.945Z,13.50
2023-05-15T06:59:03.872Z,10.60
2023-05-15T07:01:32.248Z,9.73
2023-05-15T07:04:00.024Z,8.60
2023-05-15T07:06:29.128Z,9.25
2023-05-15T07:08:56.880Z,9.50
2023-05-15T07:11:24.484Z,9.18
2023-05-15T07:13:53.042Z,8.68
2023-05-15T07:16:20.782Z,9.68
2023-05-15T07:18:48.662Z,8.95
2023-05-15T07:21:16.526Z,9.60
2023-05-15T07:23:45.586Z,9.95
2023-05-15T07:26:20.091Z,10.23
2023-05-15T07:28:55.530Z,8.60
2023-05-15T07:31:23.480Z,9.55
2023-05-15T07:33:51.181Z,10.63
2023-05-15T07:36:18.775Z,9.20
2023-05-15T07:38:47.905Z,9.45
2023-05-15T07:41:15.591Z,9.93
2023-05-15T07:43:43.283Z,10.02
2023-05-15T07:46:11.417Z,10.30
2023-05-15T07:48:39.224Z,9.65
2023-05-15T07:51:07.522Z,9.57
2023-05-15T07:53:35.151Z,8.73
2023-05-15T07:56:04.375Z,9.57
2023-05-15T07:58:33.968Z,9.50
2023-05-15T08:01:01.806Z,10.15
2023-05-15T08:03:29.643Z,9.77
2023-05-15T08:05:57.285Z,8.70
2023-05-15T08:08:24.996Z,8.98
2023-05-15T08:10:52.697Z,9.50
2023-05-15T08:13:21.809Z,7.65
2023-05-15T08:15:49.446Z,8.80
2023-05-15T08:18:17.205Z,8.93
2023-05-15T08:20:44.896Z,8.65
2023-05-15T08:23:15.050Z,8.77
2023-05-15T08:25:42.704Z,8.75
2023-05-15T08:28:11.004Z,9.45
2023-05-15T08:30:40.110Z,9.30
2023-05-15T08:33:07.785Z,9.07
2023-05-15T08:35:35.669Z,7.72
2023-05-15T08:38:04.456Z,7.38
2023-05-15T08:40:39.303Z,7.97
2023-05-15T08:43:14.971Z,7.53
2023-05-15T08:45:44.760Z,7.15
2023-05-15T08:48:15.284Z,7.25
2023-05-15T08:50:44.501Z,7.75
2023-05-15T08:53:13.713Z,7.70
2023-05-15T08:55:42.467Z,6.93
2023-05-15T08:58:10.636Z,6.82
2023-05-15T09:00:38.651Z,7.85
2023-05-15T09:03:07.943Z,7.93
2023-05-15T09:05:37.990Z,6.82
2023-05-15T09:08:09.081Z,6.40
2023-05-15T09:10:37.113Z,6.22
2023-05-15T09:13:07.399Z,5.78
2023-05-15T09:15:37.164Z,6.20
2023-05-15T09:18:07.845Z,6.30
2023-05-15T09:20:36.804Z,7.00
2023-05-15T09:23:06.570Z,5.78
2023-05-15T09:25:39.364Z,6.35
2023-05-15T09:28:08.111Z,6.20
2023-05-15T09:30:38.994Z,6.35
2023-05-15T09:33:10.003Z,6.30
2023-05-15T09:35:39.184Z,5.90
2023-05-15T09:38:10.274Z,5.88
2023-05-15T09:40:40.579Z,6.10
2023-05-15T09:43:10.999Z,5.97
2023-05-15T09:45:38.848Z,5.60
2023-05-15T09:48:11.840Z,7.10
2023-05-15T09:50:40.964Z,6.88
2023-05-15T09:53:12.997Z,6.30
2023-05-15T09:55:42.993Z,6.03
2023-05-15T09:58:12.649Z,5.97
2023-05-15T10:00:47.530Z,5.68
2023-05-15T10:03:20.215Z,6.15
2023-05-15T10:05:48.197Z,5.57
2023-05-15T10:08:16.846Z,5.90
2023-05-15T10:10:45.531Z,5.50
2023-05-15T10:13:13.277Z,5.78
2023-05-15T10:15:43.022Z,5.72
2023-05-15T10:18:11.801Z,5.88
2023-05-15T10:20:41.473Z,5.80
2023-05-15T10:23:11.580Z,5.10
2023-05-15T10:25:43.540Z,5.72
2023-05-15T10:28:13.112Z,5.53
2023-05-15T10:30:41.229Z,4.97
2023-05-15T10:33:09.587Z,6.32
2023-05-15T10:35:39.281Z,5.25
2023-05-15T10:38:08.472Z,5.70
2023-05-15T10:40:38.949Z,5.15
2023-05-15T10:43:10.168Z,4.70
2023-05-15T10:45:38.154Z,4.80
2023-05-15T10:48:12.363Z,5.53
2023-05-15T10:50:40.519Z,5.05
2023-05-15T10:53:10.467Z,4.70
2023-05-15T10:55:38.513Z,4.90
2023-05-15T10:58:09.852Z,4.50
2023-05-15T11:00:43.202Z,4.97
2023-05-15T11:03:15.006Z,4.80
2023-05-15T11:06:08.268Z,5.80
2023-05-15T11:08:37.432Z,5.00
2023-05-15T11:11:05.365Z,5.00
2023-05-15T11:14:10.654Z,5.32
2023-05-15T11:17:05.223Z,5.43
2023-05-15T11:19:35.811Z,5.47
2023-05-15T11:22:17.575Z,6.03
2023-05-15T11:24:54.991Z,6.85
2023-05-15T11:27:24.349Z,5.22
2023-05-15T11:30:07.503Z,6.10
2023-05-15T11:33:00.671Z,5.47
2023-05-15T11:35:30.598Z,6.68
2023-05-15T11:38:00.381Z,6.00
2023-05-15T11:40:31.082Z,6.32
2023-05-15T11:43:04.318Z,6.10
2023-05-15T11:45:33.926Z,6.18
2023-05-15T11:48:03.572Z,5.65
2023-05-15T11:50:33.778Z,5.03
2023-05-15T11:53:06.381Z,5.47
2023-05-15T11:55:38.321Z,5.53
2023-05-15T11:58:07.187Z,6.65
2023-05-15T12:00:35.044Z,5.50
2023-05-15T12:03:03.911Z,5.63
2023-05-15T12:05:31.862Z,5.70
2023-05-15T12:07:59.696Z,5.45
2023-05-15T12:10:27.770Z,6.47
2023-05-15T12:12:56.933Z,5.93
2023-05-15T12:15:24.926Z,6.18
2023-05-15T12:17:52.654Z,6.20
2023-05-15T12:20:20.600Z,5.85
2023-05-15T12:22:48.296Z,6.28
2023-05-15T12:25:17.757Z,6.55
2023-05-15T12:27:45.795Z,6.90
2023-05-15T12:30:16.257Z,5.75
2023-05-15T12:32:44.651Z,4.95
2023-05-15T12:35:13.044Z,6.47
2023-05-15T12:37:43.111Z,6.25
2023-05-15T12:40:11.743Z,5.60
2023-05-15T12:42:41.188Z,5.65
2023-05-15T12:45:15.757Z,6.97
2023-05-15T12:47:44.978Z,6.82
2023-05-15T12:50:14.692Z,6.32
2023-05-15T12:52:48.039Z,6.20
2023-05-15T12:55:19.506Z,5.72
2023-05-15T12:57:47.423Z,6.28
2023-05-15T13:00:17.353Z,7.20
2023-05-15T13:02:46.103Z,6.72
2023-05-15T13:05:14.816Z,6.10
2023-05-15T13:07:44.114Z,5.72
2023-05-15T13:10:13.318Z,5.65
2023-05-15T13:12:44.924Z,5.55
2023-05-15T13:15:26.171Z,4.97
2023-05-15T13:17:57.464Z,5.13
2023-05-15T13:20:25.591Z,5.43
2023-05-15T13:22:53.385Z,4.93
2023-05-15T13:25:21.878Z,5.75
2023-05-15T13:27:50.031Z,5.88
2023-05-15T13:30:18.736Z,5.38
2023-05-15T13:32:48.076Z,5.00
2023-05-15T13:35:16.370Z,5.50
2023-05-15T13:37:44.398Z,5.57
2023-05-15T13:40:13.380Z,5.75
2023-05-15T13:42:42.789Z,5.50
2023-05-15T13:45:12.099Z,6.32
2023-05-15T13:47:40.522Z,6.75
2023-05-15T13:50:11.927Z,7.57
2023-05-15T13:52:40.712Z,6.72
2023-05-15T13:55:10.429Z,7.47
2023-05-15T13:57:38.797Z,6.95
2023-05-15T14:00:07.848Z,6.47
2023-05-15T14:02:35.592Z,6.20
2023-05-15T14:05:04.573Z,6.35
2023-05-15T14:07:33.559Z,6.70
2023-05-15T14:10:01.368Z,6.22
2023-05-15T14:12:29.255Z,7.10
2023-05-15T14:14:57.052Z,6.28
2023-05-15T14:17:25.323Z,6.68
2023-05-15T14:19:53.196Z,5.25
2023-05-15T14:22:24.556Z,4.82
2023-05-15T14:24:55.022Z,5.40
2023-05-15T14:27:23.401Z,5.40
2023-05-15T14:29:52.297Z,4.25
2023-05-15T14:32:21.833Z,4.80
2023-05-15T14:34:50.657Z,6.00
2023-05-15T14:37:19.622Z,4.57
2023-05-15T14:39:47.920Z,4.53
2023-05-15T14:42:17.378Z,4.47
2023-05-15T14:44:45.073Z,5.07
2023-05-15T14:47:13.997Z,4.85
2023-05-15T14:49:42.261Z,4.95
2023-05-15T14:52:11.548Z,4.53
2023-05-15T14:54:40.174Z,4.07
2023-05-15T14:57:08.819Z,4.20
2023-05-15T14:59:37.835Z,4.30
2023-05-15T15:02:07.455Z,4.60
2023-05-15T15:04:35.088Z,5.00
2023-05-15T15:07:05.485Z,5.15
2023-05-15T15:09:33.166Z,4.70
2023-05-15T15:12:01.318Z,4.30
2023-05-15T15:14:28.963Z,3.33
2023-05-15T15:16:58.064Z,3.13
2023-05-15T15:19:25.824Z,3.20
2023-05-15T15:21:53.675Z,3.70
2023-05-15T15:24:21.388Z,4.03
2023-05-15T15:26:49.016Z,3.25
2023-05-15T15:29:16.950Z,3.80
2023-05-15T15:31:44.939Z,3.83
2023-05-15T15:34:14.223Z,3.88
2023-05-15T15:36:43.459Z,4.10
2023-05-15T15:39:13.083Z,3.83
2023-05-15T15:41:40.932Z,5.07
2023-05-15T15:44:08.597Z,3.58
2023-05-15T15:46:36.678Z,4.53
2023-05-15T15:49:06.489Z,4.28
2023-05-15T15:51:36.146Z,4.22
2023-05-15T15:54:04.167Z,4.10
2023-05-15T15:56:32.088Z,4.38
2023-05-15T15:59:00.180Z,5.85
2023-05-15T16:01:28.722Z,5.72
2023-05-15T16:03:57.177Z,6.07
2023-05-15T16:06:25.212Z,6.15
2023-05-15T16:08:56.651Z,6.82
2023-05-15T16:11:24.879Z,6.90
2023-05-15T16:13:53.712Z,5.55
2023-05-15T16:16:22.109Z,6.18
2023-05-15T16:18:50.017Z,5.47
2023-05-15T16:21:18.080Z,4.65
2023-05-15T16:23:46.182Z,4.63
2023-05-15T16:26:15.209Z,5.65
2023-05-15T16:28:42.898Z,4.88
2023-05-15T16:31:10.796Z,3.83
2023-05-15T16:33:38.627Z,4.97
2023-05-15T16:36:06.918Z,4.45
2023-05-15T16:38:34.708Z,4.88
2023-05-15T16:41:03.513Z,3.80
2023-05-15T16:43:32.724Z,4.07
2023-05-15T16:46:00.602Z,4.32
2023-05-15T16:48:28.762Z,3.65
2023-05-15T16:50:56.802Z,3.45
2023-05-15T16:53:24.660Z,4.13
2023-05-15T16:55:52.289Z,3.72
2023-05-15T16:58:20.226Z,3.45
2023-05-15T17:00:50.138Z,3.95
2023-05-15T17:03:18.941Z,3.75
2023-05-15T17:05:48.742Z,4.45
2023-05-15T17:08:16.698Z,3.83
2023-05-15T17:10:44.432Z,4.03
2023-05-15T17:13:12.453Z,4.70
2023-05-15T17:15:40.135Z,3.92
2023-05-15T17:18:10.042Z,5.22
2023-05-15T17:20:37.964Z,4.85
2023-05-15T17:23:05.698Z,5.45
2023-05-15T17:25:33.817Z,5.85
2023-05-15T17:28:01.894Z,5.07
2023-05-15T17:30:29.608Z,5.93
2023-05-15T17:32:57.638Z,5.55
2023-05-15T17:35:26.863Z,5.93
2023-05-15T17:37:54.748Z,6.65
2023-05-15T17:40:22.727Z,6.97
2023-05-15T17:42:50.733Z,6.05
2023-05-15T17:45:18.401Z,5.80
2023-05-15T17:47:46.291Z,6.20
2023-05-15T17:50:14.488Z,5.80
2023-05-15T17:52:43.701Z,6.20
2023-05-15T17:55:11.557Z,6.93
2023-05-15T17:57:39.281Z,7.03
2023-05-15T18:00:08.798Z,6.32
2023-05-15T18:02:36.881Z,6.82
2023-05-15T18:05:08.528Z,7.35
2023-05-15T18:07:36.265Z,7.57
2023-05-15T18:10:06.698Z,7.03
2023-05-15T18:12:35.239Z,6.78
2023-05-15T18:15:03.516Z,6.35
2023-05-15T18:17:31.983Z,6.07
2023-05-15T18:20:01.706Z,7.43
2023-05-15T18:22:29.832Z,6.35
2023-05-15T18:24:57.761Z,6.60
2023-05-15T18:27:26.970Z,5.90
2023-05-15T18:29:55.084Z,5.55
2023-05-15T18:32:22.975Z,5.88
2023-05-15T18:34:50.804Z,4.90
2023-05-15T18:37:18.507Z,5.65
2023-05-15T18:39:47.887Z,5.47
2023-05-15T18:42:16.064Z,5.25
2023-05-15T18:44:46.411Z,5.05
2023-05-15T18:47:14.243Z,4.55
2023-05-15T18:49:42.198Z,5.43
2023-05-15T18:52:10.648Z,5.78
2023-05-15T18:54:40.561Z,5.68
2023-05-15T18:57:09.151Z,5.55
2023-05-15T18:59:37.166Z,5.13
2023-05-15T19:02:07.080Z,5.38
2023-05-15T19:04:35.078Z,4.72
2023-05-15T19:07:02.940Z,5.15
2023-05-15T19:09:31.562Z,5.15
2023-05-15T19:12:00.534Z,5.32
2023-05-15T19:14:28.224Z,5.85
2023-05-15T19:16:56.136Z,5.70
2023-05-15T19:19:26.300Z,5.15
2023-05-15T19:21:54.890Z,5.95
2023-05-15T19:24:22.721Z,5.78
2023-05-15T19:26:50.842Z,5.25
2023-05-15T19:29:18.828Z,6.22
2023-05-15T19:31:46.706Z,6.20
2023-05-15T19:34:14.537Z,6.93
2023-05-15T19:36:46.030Z,5.85
2023-05-15T19:39:13.724Z,5.88
2023-05-15T19:41:42.363Z,6.15
2023-05-15T19:44:10.320Z,6.43
2023-05-15T19:46:39.194Z,6.93
2023-05-15T19:49:07.714Z,5.57
2023-05-15T19:51:36.185Z,6.50
2023-05-15T19:54:05.827Z,5.85
2023-05-15T19:56:33.924Z,5.40
2023-05-15T19:59:01.808Z,5.50
2023-05-15T20:01:29.803Z,6.00
2023-05-15T20:03:57.988Z,5.88
2023-05-15T20:06:26.174Z,6.15
2023-05-15T20:08:54.204Z,6.50
2023-05-15T20:11:24.011Z,5.88
2023-05-15T20:13:53.223Z,7.30
2023-05-15T20:16:21.802Z,6.03
2023-05-15T20:18:55.561Z,6.45
2023-05-15T20:21:23.272Z,5.22
2023-05-15T20:23:51.104Z,6.15
2023-05-15T20:26:19.954Z,6.53
2023-05-15T20:28:48.986Z,7.35
2023-05-15T20:31:16.655Z,6.45
2023-05-15T20:33:44.578Z,7.13
2023-05-15T20:36:12.863Z,5.95
2023-05-15T20:38:41.234Z,7.03
2023-05-15T20:41:08.831Z,7.13
2023-05-15T20:43:36.853Z,7.40
2023-05-15T20:46:08.736Z,6.20
2023-05-15T20:48:36.950Z,5.85
2023-05-15T20:51:04.722Z,8.18
2023-05-15T20:53:32.553Z,7.00
2023-05-15T20:56:00.850Z,7.20
2023-05-15T20:58:28.798Z,6.78
2023-05-15T21:00:58.183Z,7.28
2023-05-15T21:03:27.401Z,7.22
2023-05-15T21:05:56.976Z,8.10
2023-05-15T21:08:25.394Z,8.55
2023-05-15T21:10:55.335Z,7.68
2023-05-15T21:13:23.053Z,7.57
2023-05-15T21:15:51.482Z,7.50
2023-05-15T21:18:19.475Z,8.07
2023-05-15T21:20:48.416Z,9.15
2023-05-15T21:23:16.339Z,8.52
2023-05-15T21:25:44.694Z,8.40
2023-05-15T21:28:12.415Z,8.95
2023-05-15T21:30:40.182Z,8.32
2023-05-15T21:33:08.332Z,7.80
2023-05-15T21:35:36.224Z,9.55
2023-05-15T21:38:05.415Z,8.50
2023-05-15T21:40:33.430Z,7.90
2023-05-15T21:43:01.386Z,7.97
2023-05-15T21:45:30.469Z,7.75
2023-05-15T21:47:58.486Z,9.00
2023-05-15T21:50:26.958Z,9.25
2023-05-15T21:52:54.702Z,10.18
2023-05-15T21:55:23.679Z,8.27
2023-05-15T21:57:51.390Z,8.68
2023-05-15T22:00:20.173Z,8.45
2023-05-15T22:02:47.948Z,9.07
2023-05-15T22:05:16.131Z,9.80
2023-05-15T22:07:44.450Z,9.65
2023-05-15T22:10:16.179Z,10.50
2023-05-15T22:12:45.412Z,10.05
2023-05-15T22:15:14.669Z,9.55
2023-05-15T22:17:42.554Z,9.85
2023-05-15T22:20:11.629Z,10.63
2023-05-15T22:22:41.114Z,10.00
2023-05-15T22:25:09.552Z,9.85
2023-05-15T22:27:37.501Z,10.70
2023-05-15T22:30:08.519Z,10.65
2023-05-15T22:32:36.165Z,11.30
2023-05-15T22:35:04.504Z,10.57
2023-05-15T22:37:32.191Z,11.02
2023-05-15T22:40:00.039Z,12.65
2023-05-15T22:42:27.975Z,11.20
2023-05-15T22:44:57.426Z,9.30
2023-05-15T22:47:28.311Z,10.25
2023-05-15T22:49:56.547Z,10.07
2023-05-15T22:52:24.211Z,10.40
2023-05-15T22:54:52.210Z,9.15
2023-05-15T22:57:20.032Z,10.68
2023-05-15T22:59:47.662Z,8.88
2023-05-15T23:02:15.412Z,10.05
2023-05-15T23:04:44.427Z,9.20
2023-05-15T23:07:12.292Z,8.32
2023-05-15T23:09:40.123Z,9.55
2023-05-15T23:12:08.518Z,8.98
2023-05-15T23:14:36.304Z,8.13
2023-05-15T23:17:04.194Z,9.63
2023-05-15T23:19:32.133Z,10.23
2023-05-15T23:22:02.145Z,9.70
2023-05-15T23:24:29.994Z,9.43
2023-05-15T23:26:57.673Z,9.50
2023-05-15T23:29:25.589Z,9.98
2023-05-15T23:31:53.592Z,9.82
2023-05-15T23:34:21.400Z,8.50
2023-05-15T23:36:49.370Z,9.35
2023-05-15T23:39:18.418Z,8.73
2023-05-15T23:41:46.163Z,9.68
2023-05-15T23:44:13.955Z,9.82
2023-05-15T23:46:41.632Z,8.27
2023-05-15T23:49:09.748Z,7.38
2023-05-15T23:51:37.750Z,7.40
2023-05-15T23:54:05.773Z,6.43
2023-05-15T23:56:34.989Z,7.53
2023-05-15T23:59:02.789Z,7.47
